Time;durP1;ratioP1;P1;durP2;ratioP2;P2;SDS_P1;SDS_P2;PMS_P1;PMS_P2;Temp;Humidity;BMP_temperature;BMP_pressure;BME280_temperature;BME280_humidity;BME280_pressure;Samples;Min_cycle;Max_cycle;Signal;HPM_P1;HPM_P2
2022/02/02 00:02:00;;;;;;;7.90;3.77;;;7.10;99.90;;;;;;4975072;28;20464;-71
2022/02/02 00:04:30;;;;;;;4.07;2.70;;;7.10;99.90;;;;;;4974946;28;20469;-73
2022/02/02 00:07:04;;;;;;;6.83;3.07;;;7.10;99.90;;;;;;4974790;28;20397;-72
2022/02/02 00:09:31;;;;;;;7.90;3.00;;;7.10;99.90;;;;;;4974505;28;20421;-72
2022/02/02 00:14:39;;;;;;;2.47;2.27;;;7.20;99.90;;;;;;4975050;28;20426;-73
2022/02/02 00:17:18;;;;;;;4.93;2.53;;;7.20;99.90;;;;;;4975223;28;20415;-72
2022/02/02 00:22:16;;;;;;;4.97;2.03;;;7.20;99.90;;;;;;4974705;28;20411;-73
2022/02/02 00:25:00;;;;;;;4.80;1.97;;;7.10;99.90;;;;;;4974601;28;20422;-72
2022/02/02 00:27:26;;;;;;;2.77;1.47;;;7.10;99.90;;;;;;4974650;28;20390;-73
2022/02/02 00:29:58;;;;;;;2.90;1.27;;;7.10;99.90;;;;;;4974922;28;20410;-73
2022/02/02 00:34:51;;;;;;;2.00;1.27;;;7.10;99.90;;;;;;4975097;28;20412;-72
2022/02/02 00:37:18;;;;;;;1.37;1.20;;;7.10;99.90;;;;;;4973587;28;20920;-72
2022/02/02 00:39:44;;;;;;;1.50;1.40;;;7.10;99.90;;;;;;4974415;28;20895;-72
2022/02/02 00:42:10;;;;;;;2.30;1.20;;;7.10;99.90;;;;;;4973655;28;20524;-72
2022/02/02 00:44:41;;;;;;;3.13;2.00;;;7.10;99.90;;;;;;4974771;28;20257;-72
2022/02/02 00:47:07;;;;;;;3.13;1.47;;;7.10;99.90;;;;;;4974823;28;20171;-74
2022/02/02 00:49:32;;;;;;;3.77;1.47;;;7.10;99.90;;;;;;4974010;28;20947;-72
2022/02/02 00:51:59;;;;;;;2.73;1.63;;;7.20;99.90;;;;;;4974672;28;20207;-72
2022/02/02 00:54:27;;;;;;;5.47;1.67;;;7.10;99.90;;;;;;4974198;28;20172;-72
2022/02/02 00:56:53;;;;;;;2.40;1.37;;;7.20;99.90;;;;;;4974362;28;20504;-72
2022/02/02 00:59:22;;;;;;;3.47;1.90;;;7.20;99.90;;;;;;4974063;28;20518;-73
2022/02/02 05:44:16;;;;;;;10.67;2.57;;;7.20;99.90;;;;;;4934760;29;20434;-74
2022/02/02 05:52:11;;;;;;;10.27;3.33;;;7.00;99.90;;;;;;4953640;29;20438;-73
2022/02/02 05:54:37;;;;;;;11.50;2.97;;;6.90;99.90;;;;;;4953458;29;20478;-74
2022/02/02 05:57:03;;;;;;;6.90;2.47;;;6.90;99.90;;;;;;4953884;28;20463;-73
2022/02/02 05:59:32;;;;;;;20.63;4.03;;;6.90;99.90;;;;;;4953666;29;20866;-74
2022/02/02 06:01:58;;;;;;;8.47;2.87;;;7.00;99.90;;;;;;4953676;29;20463;-74
2022/02/02 06:04:26;;;;;;;7.83;2.93;;;7.00;99.90;;;;;;4953360;29;20772;-75
2022/02/02 06:06:54;;;;;;;10.30;2.20;;;7.00;99.90;;;;;;4952856;28;20427;-71
2022/02/02 06:09:24;;;;;;;12.10;2.90;;;7.10;99.90;;;;;;4953769;29;20459;-73
2022/02/02 06:11:52;;;;;;;11.27;3.00;;;7.10;99.90;;;;;;4953341;29;20825;-74
2022/02/02 06:14:25;;;;;;;8.67;2.00;;;7.20;99.90;;;;;;4953090;29;20412;-74
2022/02/02 06:16:53;;;;;;;11.33;2.20;;;7.20;99.90;;;;;;4952770;29;21003;-75
2022/02/02 06:19:19;;;;;;;6.70;2.80;;;7.20;99.90;;;;;;4953356;28;20421;-75
2022/02/02 06:22:01;;;;;;;13.37;2.50;;;7.30;99.90;;;;;;4953535;29;20446;-74
2022/02/02 06:24:32;;;;;;;9.70;2.73;;;7.30;99.90;;;;;;4953308;29;20412;-75
2022/02/02 06:27:08;;;;;;;13.77;3.10;;;7.30;99.90;;;;;;4971095;28;20427;-74
2022/02/02 06:29:41;;;;;;;10.60;2.50;;;7.30;99.90;;;;;;4980483;28;20415;-74
2022/02/02 06:32:11;;;;;;;14.87;2.60;;;7.40;99.90;;;;;;4984597;28;20467;-75
2022/02/02 06:34:45;;;;;;;13.30;2.13;;;7.40;99.90;;;;;;4990896;28;20444;-73
2022/02/02 06:37:12;;;;;;;10.90;2.83;;;7.40;99.90;;;;;;4990710;28;20423;-74
2022/02/02 06:39:39;;;;;;;6.37;2.30;;;7.40;99.90;;;;;;4991625;28;20411;-74
2022/02/02 06:42:11;;;;;;;19.10;3.30;;;7.40;99.90;;;;;;4991715;28;20769;-74
2022/02/02 06:44:40;;;;;;;10.30;3.60;;;7.40;99.90;;;;;;4991752;28;20773;-74
2022/02/02 06:47:07;;;;;;;13.13;3.37;;;7.30;99.90;;;;;;4992238;28;20921;-74
2022/02/02 06:49:34;;;;;;;7.93;2.53;;;7.30;99.90;;;;;;4991900;28;20428;-73
2022/02/02 06:52:07;;;;;;;16.03;3.60;;;7.30;99.90;;;;;;4991794;28;20437;-72
2022/02/02 06:54:49;;;;;;;21.20;3.50;;;7.30;99.90;;;;;;4991881;28;20403;-74
2022/02/02 06:57:21;;;;;;;13.40;3.60;;;7.30;99.90;;;;;;4992026;28;20775;-73
2022/02/02 07:07:56;;;;;;;19.17;3.13;;;7.30;99.90;;;;;;4991970;28;20407;-72
2022/02/02 07:10:56;;;;;;;9.10;3.30;;;7.30;99.90;;;;;;4991594;28;20992;-72
2022/02/02 07:13:47;;;;;;;14.60;3.53;;;7.30;99.90;;;;;;4991424;28;20444;-72
2022/02/02 07:19:12;;;;;;;15.53;2.40;;;7.30;99.90;;;;;;4995113;28;20421;-72
2022/02/02 07:30:01;;;;;;;10.90;3.07;;;7.30;99.90;;;;;;4995296;28;20404;-72
2022/02/02 07:32:36;;;;;;;10.80;2.93;;;7.30;99.90;;;;;;4994910;28;20465;-72
2022/02/02 07:37:39;;;;;;;20.20;3.30;;;7.30;99.90;;;;;;4995158;28;20424;-72
2022/02/02 07:40:08;;;;;;;30.90;4.10;;;7.30;99.90;;;;;;4994610;28;20428;-72
2022/02/02 07:42:41;;;;;;;21.83;4.27;;;7.40;99.90;;;;;;4994687;28;20433;-72
2022/02/02 07:45:10;;;;;;;14.00;4.03;;;7.40;99.90;;;;;;4994418;28;20497;-73
2022/02/02 07:47:44;;;;;;;9.77;4.03;;;7.40;99.90;;;;;;4994661;28;20411;-73
2022/02/02 07:50:12;;;;;;;19.70;3.97;;;7.40;99.90;;;;;;4994445;28;20445;-72
2022/02/02 07:52:41;;;;;;;17.13;4.20;;;7.30;99.90;;;;;;4994478;28;20484;-72
2022/02/02 07:55:09;;;;;;;9.83;3.70;;;7.30;99.90;;;;;;4994018;28;20511;-72
2022/02/02 07:57:36;;;;;;;17.53;4.73;;;7.30;99.90;;;;;;4994565;28;20473;-72
2022/02/02 08:00:08;;;;;;;16.90;4.23;;;7.20;99.90;;;;;;4994060;28;20386;-72
2022/02/02 08:05:16;;;;;;;17.57;3.73;;;7.20;99.90;;;;;;4994169;28;20843;-71
2022/02/02 08:07:51;;;;;;;15.43;4.07;;;7.20;99.90;;;;;;4994339;28;20425;-71
2022/02/02 08:10:20;;;;;;;14.57;4.00;;;7.20;99.90;;;;;;4993935;28;20425;-72
2022/02/02 08:12:53;;;;;;;8.30;3.40;;;7.30;99.90;;;;;;4993863;28;20435;-70
2022/02/02 08:15:21;;;;;;;14.50;3.30;;;7.30;99.90;;;;;;4992736;28;20465;-72
2022/02/02 08:17:49;;;;;;;24.83;4.50;;;7.30;99.90;;;;;;4994121;28;20422;-72
2022/02/02 08:20:15;;;;;;;15.03;3.70;;;7.30;99.90;;;;;;4993693;28;20424;-71
2022/02/02 08:22:41;;;;;;;8.77;3.13;;;7.30;99.90;;;;;;4993934;28;20456;-72
2022/02/02 08:25:16;;;;;;;8.77;4.17;;;7.30;99.90;;;;;;4993456;28;20427;-72
2022/02/02 08:27:42;;;;;;;18.07;3.63;;;7.30;99.90;;;;;;4994012;28;20424;-72
2022/02/02 08:30:12;;;;;;;8.60;3.63;;;7.30;99.90;;;;;;4992659;28;20433;-72
2022/02/02 08:32:43;;;;;;;10.37;5.03;;;7.30;99.90;;;;;;4993737;28;20807;-73
2022/02/02 08:35:10;;;;;;;21.43;3.83;;;7.30;99.90;;;;;;4992174;28;20514;-73
2022/02/02 08:37:39;;;;;;;14.90;4.20;;;7.30;99.90;;;;;;4993833;28;20485;-72
2022/02/02 08:42:49;;;;;;;17.13;3.50;;;7.30;99.90;;;;;;4993529;28;20547;-73
2022/02/02 08:45:22;;;;;;;10.23;3.47;;;7.20;99.90;;;;;;4993498;28;20509;-73
2022/02/02 08:47:57;;;;;;;16.60;4.33;;;7.10;99.90;;;;;;4993689;28;20451;-72
2022/02/02 08:50:42;;;;;;;19.20;4.63;;;7.10;99.90;;;;;;4993222;28;20851;-72
2022/02/02 08:53:17;;;;;;;10.33;4.07;;;7.10;99.90;;;;;;4992999;28;20424;-73
2022/02/02 08:55:58;;;;;;;11.90;4.83;;;7.00;99.90;;;;;;4993207;28;20473;-72
2022/02/02 08:58:32;;;;;;;20.50;3.97;;;7.00;99.90;;;;;;4992941;28;20972;-74
2022/02/02 09:00:59;;;;;;;5.63;3.77;;;7.10;99.90;;;;;;4993016;28;20923;-73
2022/02/02 09:06:10;;;;;;;22.10;5.40;;;7.10;99.90;;;;;;4993406;28;20428;-73
2022/02/02 09:08:36;;;;;;;17.77;4.80;;;7.20;99.90;;;;;;4993144;28;20487;-74
2022/02/02 09:24:49;;;;;;;10.80;3.53;;;7.50;99.90;;;;;;4992882;28;20846;-73
2022/02/02 09:33:18;;;;;;;23.53;4.40;;;7.80;99.90;;;;;;4992511;28;20991;-71
2022/02/02 09:35:41;;;;;;;17.87;3.70;;;7.80;99.90;;;;;;4992658;28;21037;-73
2022/02/02 09:38:06;;;;;;;15.93;4.93;;;7.80;99.90;;;;;;4992474;28;20416;-74
2022/02/02 09:43:19;;;;;;;18.73;3.70;;;7.90;99.90;;;;;;4992274;28;20181;-73
2022/02/02 09:45:47;;;;;;;13.50;4.67;;;7.90;99.90;;;;;;4992696;28;20998;-73
2022/02/02 09:48:23;;;;;;;14.63;4.43;;;8.00;99.90;;;;;;4992410;28;20448;-72
2022/02/02 09:50:56;;;;;;;12.03;3.20;;;7.90;99.90;;;;;;4992499;28;20490;-72
2022/02/02 09:53:35;;;;;;;18.40;4.30;;;7.90;99.90;;;;;;4992154;28;20426;-72
2022/02/02 09:56:23;;;;;;;9.53;4.07;;;7.90;99.90;;;;;;4992205;28;20517;-73
2022/02/02 10:09:22;;;;;;;16.60;4.43;;;8.10;99.90;;;;;;4976215;28;20427;-73
2022/02/02 10:14:27;;;;;;;16.30;4.40;;;8.40;99.90;;;;;;4992077;28;20460;-73
2022/02/02 10:16:54;;;;;;;11.17;3.47;;;8.50;99.90;;;;;;4991529;28;20497;-73
2022/02/02 10:19:22;;;;;;;14.97;4.03;;;8.50;99.90;;;;;;4991872;28;20789;-74
2022/02/02 10:21:48;;;;;;;12.53;4.13;;;8.50;99.90;;;;;;4991745;28;20437;-74
2022/02/02 10:24:13;;;;;;;16.53;4.40;;;8.60;99.90;;;;;;4991674;28;20518;-74
2022/02/02 10:26:49;;;;;;;14.43;3.83;;;8.50;99.90;;;;;;4991729;28;20422;-74
2022/02/02 10:29:16;;;;;;;13.07;3.17;;;8.50;99.90;;;;;;4991760;28;20725;-74
2022/02/02 10:31:48;;;;;;;10.13;3.27;;;8.60;99.90;;;;;;4991900;28;20454;-74
2022/02/02 10:34:17;;;;;;;13.23;4.70;;;8.90;99.90;;;;;;4991553;28;20974;-74
2022/02/02 10:36:43;;;;;;;11.10;4.00;;;9.10;99.90;;;;;;4991492;28;20468;-74
2022/02/02 10:39:18;;;;;;;9.17;3.90;;;9.20;99.90;;;;;;4991494;28;20422;-73
2022/02/02 10:41:57;;;;;;;20.97;4.17;;;9.20;99.90;;;;;;4991871;28;20424;-72
2022/02/02 10:44:34;;;;;;;12.60;3.10;;;9.10;99.90;;;;;;4991548;28;20441;-73
2022/02/02 10:47:17;;;;;;;16.83;3.47;;;9.10;99.90;;;;;;4991538;28;20941;-74
2022/02/02 10:55:18;;;;;;;14.00;3.40;;;8.90;99.90;;;;;;4995550;28;20178;-74
2022/02/02 10:58:22;;;;;;;14.37;4.33;;;8.90;99.90;;;;;;4995232;28;20829;-73
2022/02/02 11:00:52;;;;;;;10.80;3.50;;;9.00;99.90;;;;;;4983472;28;20502;-73
2022/02/02 11:08:51;;;;;;;14.30;4.00;;;9.10;99.90;;;;;;4976117;28;20438;-73
2022/02/02 11:11:18;;;;;;;15.40;3.03;;;9.20;99.90;;;;;;4975397;28;20823;-73
2022/02/02 11:13:46;;;;;;;7.70;2.93;;;9.30;99.90;;;;;;4975639;28;20499;-72
2022/02/02 11:16:19;;;;;;;15.20;4.30;;;9.40;99.90;;;;;;4975108;28;20470;-72
2022/02/02 11:18:46;;;;;;;15.27;3.63;;;9.40;99.90;;;;;;4975743;28;20855;-72
2022/02/02 11:21:18;;;;;;;11.33;2.87;;;9.50;99.90;;;;;;4975236;28;20450;-73
2022/02/02 11:23:48;;;;;;;20.87;3.50;;;9.80;99.90;;;;;;4975365;28;20848;-72
2022/02/02 11:26:33;;;;;;;16.93;2.97;;;10.00;99.90;;;;;;4975098;28;20761;-71
2022/02/02 11:28:59;;;;;;;13.13;3.37;;;10.00;99.90;;;;;;4975183;28;20846;-71
2022/02/02 11:31:24;;;;;;;15.50;3.67;;;9.80;99.90;;;;;;4975012;28;20465;-71
2022/02/02 11:33:56;;;;;;;19.00;3.80;;;9.80;99.90;;;;;;4974899;28;20179;-71
2022/02/02 11:36:34;;;;;;;8.63;3.00;;;9.70;99.90;;;;;;4972713;28;20197;-71
2022/02/02 11:39:04;;;;;;;12.00;3.73;;;9.50;99.90;;;;;;4973749;28;20448;-70
2022/02/02 11:41:45;;;;;;;17.73;5.67;;;9.80;99.90;;;;;;4975369;28;20437;-72
2022/02/02 11:44:27;;;;;;;15.47;5.00;;;10.00;99.90;;;;;;4974843;28;20529;-72
2022/02/02 11:47:12;;;;;;;16.37;3.20;;;9.90;99.90;;;;;;4975244;28;20412;-72
2022/02/02 11:49:53;;;;;;;17.00;3.80;;;9.60;99.90;;;;;;4975122;28;21009;-72
2022/02/02 11:52:49;;;;;;;10.77;3.60;;;9.60;99.90;;;;;;4974875;28;20488;-71
2022/02/02 11:55:15;;;;;;;11.37;3.23;;;9.60;99.90;;;;;;4974814;28;20520;-72
2022/02/02 11:58:01;;;;;;;10.07;4.20;;;9.50;99.90;;;;;;4974786;28;20413;-70
2022/02/02 12:57:40;;;;;;;12.73;3.20;;;8.70;99.90;;;;;;4993253;28;20511;-71
2022/02/02 13:00:10;;;;;;;11.53;3.10;;;8.70;99.90;;;;;;4992861;28;20496;-72
2022/02/02 13:02:41;;;;;;;7.43;3.10;;;8.70;99.90;;;;;;4993287;28;20477;-72
2022/02/02 13:05:09;;;;;;;10.10;2.93;;;8.80;99.90;;;;;;4992728;28;20425;-72
2022/02/02 13:07:37;;;;;;;9.03;2.87;;;8.70;99.90;;;;;;4992962;28;20474;-71
2022/02/02 13:10:07;;;;;;;9.97;2.80;;;8.80;99.90;;;;;;4992685;28;20926;-72
2022/02/02 13:12:41;;;;;;;13.83;3.80;;;8.80;99.90;;;;;;4991675;28;20436;-71
2022/02/02 13:29:11;;;;;;;6.20;1.63;;;8.70;99.90;;;;;;4992498;28;20556;-72
2022/02/02 13:34:14;;;;;;;7.40;1.80;;;8.60;99.90;;;;;;4992165;28;20416;-72
2022/02/02 13:39:27;;;;;;;4.10;2.00;;;8.40;99.90;;;;;;4990830;28;20780;-72
2022/02/02 13:47:53;;;;;;;8.23;2.30;;;8.40;99.90;;;;;;4959787;28;20524;-71
2022/02/02 13:53:06;;;;;;;3.80;1.60;;;8.30;99.90;;;;;;4961836;28;20446;-71
2022/02/02 13:56:13;;;;;;;9.90;1.60;;;8.30;99.90;;;;;;4961381;28;20894;-71
2022/02/02 14:01:02;;;;;;;5.10;1.83;;;8.40;99.90;;;;;;4953046;29;20446;-71
2022/02/02 14:32:58;;;;;;;8.43;3.53;;;8.50;99.90;;;;;;4976271;28;20995;-72
2022/02/02 14:35:23;;;;;;;10.80;3.20;;;8.50;99.90;;;;;;4976053;28;20454;-73
2022/02/02 14:37:51;;;;;;;16.30;3.37;;;8.50;99.90;;;;;;4974914;28;20242;-73
2022/02/02 14:40:31;;;;;;;11.70;3.27;;;8.40;99.90;;;;;;4975937;28;20197;-72
2022/02/02 14:43:00;;;;;;;12.20;3.57;;;8.40;99.90;;;;;;4976468;28;20388;-72
2022/02/02 14:45:28;;;;;;;15.30;3.00;;;8.30;99.90;;;;;;4976007;28;20422;-72
2022/02/02 14:48:02;;;;;;;10.30;3.07;;;8.20;99.90;;;;;;4976027;28;20415;-71
2022/02/02 14:50:32;;;;;;;14.73;4.33;;;8.00;99.90;;;;;;4974545;28;20418;-72
2022/02/02 14:56:06;;;;;;;12.40;4.07;;;7.90;99.90;;;;;;4986449;28;20980;-70
2022/02/02 15:28:03;;;;;;;13.53;3.10;;;7.80;99.90;;;;;;4972453;28;21187;-73
2022/02/02 15:30:45;;;;;;;7.30;2.23;;;7.80;99.90;;;;;;4975826;28;20953;-72
2022/02/02 15:33:17;;;;;;;8.73;2.40;;;7.70;99.90;;;;;;4976835;28;20431;-73
2022/02/02 15:35:44;;;;;;;8.87;2.37;;;7.60;99.90;;;;;;4974253;28;20831;-73
2022/02/02 15:38:26;;;;;;;7.53;2.90;;;7.60;99.90;;;;;;4988715;28;20422;-72
2022/02/02 15:41:00;;;;;;;8.57;2.60;;;7.50;99.90;;;;;;4994301;28;20469;-72
2022/02/02 15:44:43;;;;;;;6.87;2.17;;;7.50;99.90;;;;;;4994446;28;20419;-72
2022/02/02 16:00:58;;;;;;;4.03;2.27;;;7.50;99.90;;;;;;4897210;29;20441;-73
2022/02/02 16:03:09;;;;;;;4.27;2.27;;;7.40;99.90;;;;;;4938577;29;20529;-72
2022/02/02 16:05:44;;;;;;;8.40;3.10;;;7.30;99.90;;;;;;4955471;29;20410;-73
2022/02/02 16:08:12;;;;;;;5.53;2.67;;;7.30;99.90;;;;;;4955267;29;20448;-72
2022/02/02 16:10:44;;;;;;;3.60;2.30;;;7.20;99.90;;;;;;4954979;29;20414;-72
2022/02/02 16:13:26;;;;;;;9.20;3.10;;;7.10;99.90;;;;;;4953992;29;20465;-73
2022/02/02 16:15:59;;;;;;;17.10;3.60;;;7.10;99.90;;;;;;4954171;29;20458;-72
2022/02/02 16:18:40;;;;;;;9.83;3.50;;;7.10;99.90;;;;;;4954504;29;20923;-73
2022/02/02 16:37:24;;;;;;;3.90;2.13;;;7.10;99.90;;;;;;4972202;28;20515;-72
2022/02/02 16:39:53;;;;;;;10.10;2.20;;;7.10;99.90;;;;;;4970316;28;20772;-73
2022/02/02 16:45:04;;;;;;;5.77;2.80;;;7.10;99.90;;;;;;4973308;28;20506;-74
2022/02/02 16:47:30;;;;;;;5.27;3.07;;;7.10;99.90;;;;;;4973145;28;20430;-74
2022/02/02 16:49:56;;;;;;;5.30;2.27;;;7.20;99.90;;;;;;4972668;28;20413;-74
2022/02/02 16:52:24;;;;;;;2.20;2.00;;;7.20;99.90;;;;;;4973132;28;20232;-73
2022/02/02 16:54:51;;;;;;;3.03;2.70;;;7.20;99.90;;;;;;4973236;28;20206;-74
2022/02/02 16:57:34;;;;;;;3.80;2.37;;;7.30;99.90;;;;;;4972727;28;21123;-74
2022/02/02 17:35:07;;;;;;;10.70;4.20;;;7.20;99.90;;;;;;4961888;28;20814;-74
2022/02/02 18:21:18;;;;;;;5.07;4.23;;;6.80;99.90;;;;;;4963898;28;20992;-75
2022/02/02 18:23:54;;;;;;;5.13;4.17;;;6.80;99.90;;;;;;4962976;28;20427;-74
2022/02/02 18:26:28;;;;;;;4.63;3.67;;;6.80;99.90;;;;;;4962513;28;20414;-75
2022/02/02 18:29:22;;;;;;;4.37;3.80;;;6.70;99.90;;;;;;4961782;28;20419;-75
2022/02/02 18:32:10;;;;;;;4.33;3.93;;;6.70;99.90;;;;;;4961022;28;20464;-74
2022/02/02 18:37:42;;;;;;;6.00;4.40;;;6.70;99.90;;;;;;4953410;29;20464;-75
2022/02/02 19:01:21;;;;;;;4.00;3.60;;;6.50;99.90;;;;;;4941311;28;20228;-73
2022/02/02 20:03:51;;;;;;;6.80;4.77;;;4.60;99.90;;;;;;4955433;28;21167;-73
2022/02/02 20:06:39;;;;;;;6.23;5.63;;;4.50;99.90;;;;;;4954648;29;20428;-72
2022/02/02 20:11:43;;;;;;;9.60;5.80;;;4.40;99.90;;;;;;4974360;28;20899;-72
2022/02/02 20:14:11;;;;;;;10.27;4.97;;;4.40;99.90;;;;;;4974174;28;20435;-72
2022/02/02 20:16:38;;;;;;;9.70;5.53;;;4.30;99.90;;;;;;4972227;28;20550;-73
2022/02/02 20:19:07;;;;;;;6.10;5.20;;;4.30;99.90;;;;;;4974322;28;20428;-73
2022/02/02 20:21:36;;;;;;;6.40;4.90;;;4.30;99.90;;;;;;4972098;28;20433;-73
2022/02/02 20:24:05;;;;;;;6.63;4.30;;;4.20;99.90;;;;;;4971810;28;20564;-73
2022/02/02 20:26:33;;;;;;;6.73;4.70;;;4.20;99.90;;;;;;4971734;28;20543;-73
2022/02/02 20:28:59;;;;;;;6.90;4.33;;;4.20;99.90;;;;;;4990274;28;20472;-73
2022/02/02 20:31:25;;;;;;;5.90;3.87;;;4.20;99.90;;;;;;4990133;28;20471;-72
2022/02/02 20:33:51;;;;;;;5.30;4.00;;;4.20;99.90;;;;;;4989386;28;20617;-73
2022/02/02 20:36:17;;;;;;;12.07;4.97;;;4.10;99.90;;;;;;4970263;28;21223;-73
2022/02/02 20:38:42;;;;;;;5.47;4.30;;;4.10;99.90;;;;;;4970292;28;20214;-73
2022/02/02 20:41:08;;;;;;;6.27;4.43;;;4.10;99.90;;;;;;4972816;28;20225;-72
2022/02/02 20:43:53;;;;;;;7.00;5.30;;;4.20;99.90;;;;;;4982152;28;20256;-73
2022/02/02 20:47:00;;;;;;;10.33;6.20;;;4.20;99.90;;;;;;4970899;28;20209;-73
2022/02/02 21:05:50;;;;;;;9.97;6.50;;;4.10;99.90;;;;;;4970556;28;20957;-73
2022/02/02 21:10:45;;;;;;;18.73;7.63;;;4.20;99.90;;;;;;4958081;28;20433;-74
2022/02/02 21:15:55;;;;;;;6.90;6.20;;;4.30;99.90;;;;;;4950274;28;20469;-73
2022/02/02 21:18:29;;;;;;;8.00;5.80;;;4.30;99.90;;;;;;4951281;28;20437;-73
2022/02/02 21:21:02;;;;;;;10.30;6.77;;;4.30;99.90;;;;;;4950234;28;20559;-74
2022/02/02 21:23:38;;;;;;;18.40;7.27;;;4.30;99.90;;;;;;4951026;28;20525;-73
2022/02/02 21:28:29;;;;;;;6.70;4.33;;;4.30;99.90;;;;;;4951245;29;20466;-73
2022/02/02 21:30:55;;;;;;;6.10;4.67;;;4.40;99.90;;;;;;4951006;28;20233;-73
2022/02/02 21:33:20;;;;;;;4.83;4.23;;;4.40;99.90;;;;;;4950619;29;20209;-73
2022/02/02 21:35:49;;;;;;;4.93;4.00;;;4.50;99.90;;;;;;4950735;28;20246;-72
2022/02/02 21:38:44;;;;;;;3.90;3.60;;;4.50;99.90;;;;;;4957234;28;20212;-72
2022/02/02 21:41:00;;;;;;;4.30;3.73;;;4.60;99.90;;;;;;4958989;28;20961;-71
2022/02/02 21:43:30;;;;;;;9.30;5.63;;;4.60;99.90;;;;;;4960076;28;20450;-73
2022/02/02 21:45:56;;;;;;;10.17;6.10;;;4.60;99.90;;;;;;4959207;28;20455;-73
2022/02/02 21:48:22;;;;;;;7.33;4.63;;;4.70;99.90;;;;;;4959329;28;20438;-72
2022/02/02 21:50:59;;;;;;;7.67;4.50;;;4.70;99.90;;;;;;4959716;28;20473;-73
2022/02/02 21:53:24;;;;;;;5.10;4.60;;;4.80;99.90;;;;;;4960823;28;20209;-73
2022/02/02 21:55:50;;;;;;;4.70;4.20;;;4.80;99.90;;;;;;4957536;28;21706;-72
2022/02/02 21:58:15;;;;;;;9.50;4.50;;;4.80;99.90;;;;;;4963489;28;20574;-73
2022/02/02 22:00:41;;;;;;;5.93;4.67;;;4.80;99.90;;;;;;4961517;28;20264;-73
2022/02/02 22:03:08;;;;;;;4.87;3.40;;;4.80;99.90;;;;;;4966225;28;20177;-73
2022/02/02 22:05:37;;;;;;;4.80;4.30;;;4.90;99.90;;;;;;4961297;28;20202;-73
2022/02/02 22:08:08;;;;;;;3.83;3.53;;;4.90;99.90;;;;;;4961429;28;20427;-72
2022/02/02 22:10:34;;;;;;;5.43;3.80;;;4.90;99.90;;;;;;4963792;28;20506;-73
2022/02/02 22:13:00;;;;;;;4.00;3.60;;;4.90;99.90;;;;;;4961362;28;20465;-73
2022/02/02 22:15:30;;;;;;;4.03;3.20;;;5.00;99.90;;;;;;4962589;28;20420;-73
2022/02/02 22:17:56;;;;;;;5.50;3.67;;;5.00;99.90;;;;;;4962659;28;20422;-72
2022/02/02 22:20:21;;;;;;;6.10;3.30;;;5.00;99.90;;;;;;4961443;28;20829;-72
2022/02/02 22:22:47;;;;;;;5.03;3.30;;;5.00;99.90;;;;;;4963855;28;20202;-72
2022/02/02 22:25:15;;;;;;;4.40;3.60;;;5.10;99.90;;;;;;4969471;28;20533;-73
2022/02/02 22:27:41;;;;;;;5.80;3.40;;;5.10;99.90;;;;;;4961108;28;20449;-72
2022/02/02 22:30:08;;;;;;;4.87;4.07;;;5.10;99.90;;;;;;4962521;28;20423;-72
2022/02/02 22:32:33;;;;;;;5.13;4.20;;;5.20;99.90;;;;;;4962114;28;20773;-73
2022/02/02 22:34:59;;;;;;;4.47;3.43;;;5.20;99.90;;;;;;4961144;28;20551;-73
2022/02/02 22:37:26;;;;;;;5.23;3.90;;;5.20;99.90;;;;;;4961801;28;20270;-73
2022/02/02 22:39:52;;;;;;;4.30;3.90;;;5.20;99.90;;;;;;4963087;28;20180;-73
2022/02/02 22:42:21;;;;;;;5.57;4.13;;;5.30;99.90;;;;;;4961197;28;20452;-73
2022/02/02 22:44:47;;;;;;;5.57;3.90;;;5.30;99.90;;;;;;4961869;28;20415;-73
2022/02/02 22:47:14;;;;;;;6.63;4.50;;;5.30;99.90;;;;;;4962171;28;20950;-72
2022/02/02 22:49:43;;;;;;;7.47;4.90;;;5.40;99.90;;;;;;4964263;28;20429;-72
2022/02/02 22:52:10;;;;;;;6.10;3.50;;;5.40;99.90;;;;;;4966446;28;20414;-71
2022/02/02 22:54:38;;;;;;;6.70;4.13;;;5.50;99.90;;;;;;4973130;28;20414;-72
2022/02/02 22:57:04;;;;;;;6.80;4.37;;;5.50;99.90;;;;;;4975695;28;20872;-72
2022/02/02 22:59:34;;;;;;;4.43;3.83;;;5.50;99.90;;;;;;4976096;28;20497;-72
2022/02/02 23:02:11;;;;;;;7.93;4.37;;;5.60;99.90;;;;;;4975114;28;20532;-72
2022/02/02 23:04:37;;;;;;;6.23;3.53;;;5.60;99.90;;;;;;4975935;28;20420;-72
2022/02/02 23:07:04;;;;;;;3.77;3.47;;;5.60;99.90;;;;;;4975653;28;20449;-72
2022/02/02 23:09:31;;;;;;;6.10;3.17;;;5.60;99.90;;;;;;4943252;28;20179;-71
2022/02/02 23:11:57;;;;;;;3.23;2.93;;;5.70;99.90;;;;;;4975362;28;20423;-72
2022/02/02 23:14:27;;;;;;;3.83;3.50;;;5.70;99.90;;;;;;4974474;28;20410;-71
2022/02/02 23:16:54;;;;;;;5.50;4.70;;;5.70;99.90;;;;;;4974840;28;20204;-72
2022/02/02 23:19:20;;;;;;;5.83;5.20;;;5.70;99.90;;;;;;4975413;28;20417;-72
2022/02/02 23:21:47;;;;;;;6.10;5.50;;;5.70;99.90;;;;;;4975573;28;20481;-72
2022/02/02 23:24:15;;;;;;;4.97;4.47;;;5.70;99.90;;;;;;4976457;28;20423;-73
2022/02/02 23:26:43;;;;;;;8.43;4.80;;;5.80;99.90;;;;;;4976442;28;20953;-72
2022/02/02 23:29:11;;;;;;;5.97;4.63;;;5.80;99.90;;;;;;4976240;28;20426;-73
2022/02/02 23:31:37;;;;;;;7.93;4.30;;;5.80;99.90;;;;;;4975451;28;20481;-73
2022/02/02 23:34:02;;;;;;;5.03;4.33;;;5.80;99.90;;;;;;4976519;28;20922;-72
2022/02/02 23:36:28;;;;;;;6.47;4.87;;;5.80;99.90;;;;;;4975422;28;20445;-72
2022/02/02 23:38:55;;;;;;;4.90;4.10;;;5.90;99.90;;;;;;4975337;28;20172;-73
2022/02/02 23:44:26;;;;;;;6.33;5.73;;;5.90;99.90;;;;;;4949491;28;20460;-73
2022/02/02 23:46:54;;;;;;;6.20;5.37;;;6.00;99.90;;;;;;4967366;28;20753;-73
2022/02/02 23:49:29;;;;;;;6.47;4.60;;;6.00;99.90;;;;;;4954331;29;20870;-73
2022/02/02 23:51:58;;;;;;;5.23;4.70;;;6.00;99.90;;;;;;4955836;29;20433;-73
2022/02/02 23:54:25;;;;;;;9.20;5.70;;;6.00;99.90;;;;;;4955715;28;20447;-73
2022/02/02 23:57:01;;;;;;;7.07;5.17;;;6.10;99.90;;;;;;4955385;28;20464;-72
